createdAt,value
2023-09-06T00:02:04.372Z,48.59
2023-09-06T00:04:32.081Z,48.44
2023-09-06T00:06:58.911Z,48.92
2023-09-06T00:09:27.721Z,48.52
2023-09-06T00:11:54.597Z,48.25
2023-09-06T00:14:21.643Z,47.60
2023-09-06T00:16:48.520Z,47.35
2023-09-06T00:19:15.284Z,47.44
2023-09-06T00:21:42.200Z,47.05
2023-09-06T00:24:09.199Z,47.35
2023-09-06T00:26:36.971Z,46.79
2023-09-06T00:29:03.643Z,46.05
2023-09-06T00:31:30.625Z,46.14
2023-09-06T00:33:58.786Z,46.03
2023-09-06T00:36:27.029Z,46.17
2023-09-06T00:38:54.223Z,46.03
2023-09-06T00:41:21.432Z,45.97
2023-09-06T00:43:48.925Z,46.55
2023-09-06T00:46:16.528Z,46.56
2023-09-06T00:48:43.158Z,47.63
2023-09-06T00:51:09.889Z,47.90
2023-09-06T00:53:38.624Z,47.50
2023-09-06T00:56:05.669Z,46.92
2023-09-06T00:58:33.058Z,47.41
2023-09-06T01:00:59.766Z,47.90
2023-09-06T01:03:26.961Z,48.13
2023-09-06T01:05:55.316Z,48.23
2023-09-06T01:08:22.987Z,49.49
2023-09-06T01:10:49.610Z,49.68
2023-09-06T01:13:17.686Z,51.33
2023-09-06T01:15:45.486Z,51.43
2023-09-06T01:18:12.324Z,51.99
2023-09-06T01:20:38.996Z,52.68
2023-09-06T01:23:06.065Z,53.07
2023-09-06T01:25:33.010Z,53.10
2023-09-06T01:28:00.051Z,52.42
2023-09-06T01:30:27.019Z,52.48
2023-09-06T01:32:54.745Z,52.70
2023-09-06T01:35:21.724Z,52.32
2023-09-06T01:37:48.462Z,52.20
2023-09-06T01:40:16.023Z,52.17
2023-09-06T01:42:43.530Z,53.07
2023-09-06T01:45:10.471Z,52.76
2023-09-06T01:47:37.481Z,52.58
2023-09-06T01:50:05.119Z,52.66
2023-09-06T01:52:33.347Z,53.65
2023-09-06T01:55:00.224Z,54.34
2023-09-06T01:57:26.990Z,53.88
2023-09-06T01:59:53.856Z,55.52
2023-09-06T02:02:23.932Z,55.76
2023-09-06T02:04:50.573Z,57.04
2023-09-06T02:07:17.792Z,57.74
2023-09-06T02:09:47.176Z,57.97
2023-09-06T02:12:13.814Z,57.65
2023-09-06T02:14:40.618Z,57.36
2023-09-06T02:17:07.496Z,57.95
2023-09-06T02:19:34.441Z,57.69
2023-09-06T02:22:02.421Z,57.31
2023-09-06T02:24:30.140Z,56.09
2023-09-06T02:26:57.092Z,57.37
2023-09-06T02:29:23.744Z,57.49
2023-09-06T02:31:50.730Z,57.75
2023-09-06T02:34:17.726Z,56.63
2023-09-06T02:36:44.509Z,56.32
2023-09-06T02:39:12.646Z,56.96
2023-09-06T02:41:39.590Z,56.99
2023-09-06T02:44:07.258Z,57.14
2023-09-06T02:46:34.978Z,56.09
2023-09-06T02:49:02.394Z,56.41
2023-09-06T02:51:29.744Z,56.64
2023-09-06T02:53:57.211Z,56.59
2023-09-06T02:56:24.043Z,56.72
2023-09-06T02:58:52.775Z,56.89
2023-09-06T03:01:20.442Z,56.17
2023-09-06T03:03:49.515Z,55.65
2023-09-06T03:06:16.213Z,56.27
2023-09-06T03:08:50.996Z,56.77
2023-09-06T03:11:18.225Z,57.01
2023-09-06T03:13:45.329Z,58.04
2023-09-06T03:16:12.828Z,57.31
2023-09-06T03:18:40.647Z,56.46
2023-09-06T03:21:09.422Z,56.40
2023-09-06T03:23:36.737Z,56.42
2023-09-06T03:26:03.936Z,58.55
2023-09-06T03:28:34.225Z,59.61
2023-09-06T03:31:03.171Z,59.74
2023-09-06T03:33:29.838Z,58.83
2023-09-06T03:35:57.571Z,58.30
2023-09-06T03:38:24.677Z,57.44
2023-09-06T03:40:52.641Z,55.95
2023-09-06T03:43:20.008Z,55.91
2023-09-06T03:45:46.935Z,55.91
2023-09-06T03:48:13.723Z,55.52
2023-09-06T03:50:40.854Z,55.85
2023-09-06T03:53:09.791Z,55.60
2023-09-06T03:55:40.912Z,55.45
2023-09-06T03:58:08.648Z,57.06
2023-09-06T04:00:36.360Z,57.77
2023-09-06T04:03:03.970Z,59.72
2023-09-06T04:05:31.014Z,58.43
2023-09-06T04:07:58.678Z,57.96
2023-09-06T04:16:51.867Z,55.90
2023-09-06T04:19:24.356Z,55.73
2023-09-06T04:50:36.010Z,58.56
2023-09-06T04:53:03.490Z,58.40
2023-09-06T04:55:39.117Z,57.73
2023-09-06T04:58:06.489Z,57.04
2023-09-06T05:00:33.180Z,55.51
2023-09-06T05:03:00.944Z,55.09
2023-09-06T05:05:29.350Z,54.46
2023-09-06T05:07:59.156Z,54.13
2023-09-06T05:10:26.413Z,53.91
2023-09-06T05:12:55.128Z,54.78
2023-09-06T05:15:22.736Z,54.29
2023-09-06T05:17:50.651Z,54.68
2023-09-06T05:20:20.489Z,53.65
2023-09-06T05:22:47.563Z,54.11
2023-09-06T05:25:15.356Z,54.06
2023-09-06T05:27:42.553Z,53.80
2023-09-06T05:30:12.552Z,53.00
2023-09-06T05:32:40.109Z,53.11
2023-09-06T05:35:11.587Z,53.21
2023-09-06T05:37:38.477Z,53.46
2023-09-06T05:40:05.465Z,52.94
2023-09-06T05:42:34.681Z,52.45
2023-09-06T05:45:03.734Z,51.94
2023-09-06T05:47:33.564Z,50.19
2023-09-06T05:50:00.789Z,48.88
2023-09-06T05:52:33.560Z,46.75
2023-09-06T05:55:01.421Z,45.06
2023-09-06T05:57:35.309Z,44.39
2023-09-06T06:00:02.901Z,44.39
2023-09-06T06:02:37.133Z,44.65
2023-09-06T06:05:05.985Z,45.92
2023-09-06T06:07:33.245Z,46.25
2023-09-06T06:10:02.243Z,47.20
2023-09-06T06:12:37.577Z,47.01
2023-09-06T06:15:05.374Z,49.15
2023-09-06T06:17:32.501Z,48.44
2023-09-06T06:19:59.461Z,49.40
2023-09-06T06:22:26.444Z,48.27
2023-09-06T06:24:54.258Z,49.34
2023-09-06T06:27:22.149Z,49.39
2023-09-06T06:29:50.142Z,50.31
2023-09-06T06:32:18.578Z,49.68
2023-09-06T06:34:45.581Z,49.23
2023-09-06T06:37:12.354Z,50.00
2023-09-06T06:39:43.134Z,51.61
2023-09-06T06:42:09.987Z,49.64
2023-09-06T06:44:40.027Z,47.50
2023-09-06T06:47:06.990Z,45.34
2023-09-06T06:49:34.168Z,44.86
2023-09-06T06:52:01.614Z,42.78
2023-09-06T06:54:28.495Z,42.26
2023-09-06T06:56:55.917Z,42.25
2023-09-06T06:59:23.692Z,41.03
2023-09-06T07:01:50.221Z,40.43
2023-09-06T07:04:19.431Z,39.30
2023-09-06T07:06:46.867Z,38.63
2023-09-06T07:09:13.786Z,38.90
2023-09-06T07:11:40.820Z,39.89
2023-09-06T07:14:07.727Z,39.55
2023-09-06T07:16:34.870Z,39.45
2023-09-06T07:19:03.050Z,39.01
2023-09-06T07:21:30.661Z,39.01
2023-09-06T07:23:57.663Z,39.47
2023-09-06T07:26:24.654Z,40.39
2023-09-06T07:28:51.570Z,40.41
2023-09-06T07:31:22.754Z,41.08
2023-09-06T07:33:49.739Z,41.98
2023-09-06T07:36:20.530Z,41.65
2023-09-06T07:38:48.367Z,41.78
2023-09-06T07:41:15.044Z,42.33
2023-09-06T07:43:42.298Z,43.25
2023-09-06T07:46:09.947Z,43.66
2023-09-06T07:48:37.041Z,42.98
2023-09-06T07:51:05.122Z,44.51
2023-09-06T07:53:31.916Z,44.01
2023-09-06T07:55:59.236Z,43.84
2023-09-06T07:58:30.458Z,43.53
2023-09-06T08:01:14.983Z,43.45
2023-09-06T08:03:45.975Z,43.62
2023-09-06T08:06:13.032Z,43.63
2023-09-06T08:08:41.067Z,44.27
2023-09-06T08:11:09.849Z,45.74
2023-09-06T08:13:36.951Z,45.53
2023-09-06T08:18:35.364Z,46.15
2023-09-06T08:21:03.252Z,48.16
2023-09-06T08:23:30.059Z,47.37
2023-09-06T08:25:57.994Z,47.60
2023-09-06T08:28:28.500Z,46.82
2023-09-06T08:30:56.860Z,47.63
2023-09-06T08:33:31.658Z,47.36
2023-09-06T08:36:05.766Z,46.91
2023-09-06T08:38:33.257Z,48.30
2023-09-06T08:41:00.939Z,47.80
2023-09-06T08:43:28.420Z,47.66
2023-09-06T08:45:57.332Z,46.72
2023-09-06T08:48:25.664Z,47.08
2023-09-06T08:50:56.455Z,49.12
2023-09-06T08:53:24.367Z,49.68
2023-09-06T08:55:51.811Z,48.64
2023-09-06T08:58:18.429Z,49.24
2023-09-06T09:00:47.332Z,50.59
2023-09-06T09:03:14.614Z,49.38
2023-09-06T09:05:43.789Z,49.23
2023-09-06T09:08:10.983Z,48.26
2023-09-06T09:10:38.696Z,49.10
2023-09-06T09:13:05.447Z,49.86
2023-09-06T09:15:33.134Z,49.11
2023-09-06T09:18:02.259Z,48.29
2023-09-06T09:20:37.274Z,47.93
2023-09-06T09:23:04.268Z,47.78
2023-09-06T09:25:33.279Z,46.90
2023-09-06T09:28:00.244Z,47.03
2023-09-06T09:30:28.062Z,48.06
2023-09-06T09:32:57.020Z,47.07
2023-09-06T09:38:27.718Z,46.97
2023-09-06T09:41:10.192Z,45.61
2023-09-06T09:43:44.212Z,47.08
2023-09-06T09:46:12.775Z,47.19
2023-09-06T09:48:39.844Z,46.57
2023-09-06T09:51:14.241Z,46.20
2023-09-06T09:56:58.391Z,47.68
2023-09-06T09:59:24.974Z,46.97
2023-09-06T10:01:54.404Z,46.89
2023-09-06T10:04:21.605Z,46.15
2023-09-06T10:06:48.786Z,45.33
2023-09-06T10:09:17.543Z,45.51
2023-09-06T10:11:51.567Z,45.18
2023-09-06T10:14:18.489Z,44.75
2023-09-06T10:16:51.410Z,45.12
2023-09-06T10:19:18.372Z,45.37
2023-09-06T10:21:45.119Z,44.36
2023-09-06T10:24:11.938Z,43.73
2023-09-06T10:26:38.645Z,44.31
2023-09-06T10:29:05.447Z,44.29
2023-09-06T10:31:32.363Z,44.76
2023-09-06T10:33:59.743Z,43.58
2023-09-06T10:36:26.655Z,43.86
2023-09-06T10:38:53.569Z,44.60
2023-09-06T10:41:20.645Z,45.07
2023-09-06T10:43:54.672Z,45.33
2023-09-06T10:46:21.744Z,44.71
2023-09-06T10:48:48.784Z,43.82
2023-09-06T10:51:15.447Z,43.95
2023-09-06T10:53:42.415Z,42.72
2023-09-06T10:56:09.345Z,41.89
2023-09-06T10:58:36.235Z,41.71
2023-09-06T11:01:03.723Z,42.43
2023-09-06T11:03:30.746Z,40.65
2023-09-06T11:05:57.837Z,41.69
2023-09-06T11:08:24.685Z,39.53
2023-09-06T11:10:51.363Z,39.39
2023-09-06T11:13:18.119Z,39.30
2023-09-06T11:15:44.883Z,39.08
2023-09-06T11:18:11.934Z,39.48
2023-09-06T11:20:39.365Z,39.98
2023-09-06T11:23:08.168Z,39.05
2023-09-06T11:25:35.254Z,38.18
2023-09-06T11:28:04.570Z,38.72
2023-09-06T11:30:32.921Z,39.97
2023-09-06T11:33:02.121Z,39.95
2023-09-06T11:35:28.988Z,41.27
2023-09-06T11:37:56.411Z,40.42
2023-09-06T11:40:23.468Z,40.70
2023-09-06T11:42:50.558Z,40.30
2023-09-06T11:45:19.836Z,39.91
2023-09-06T11:47:46.822Z,39.90
2023-09-06T11:50:13.745Z,40.04
2023-09-06T11:52:55.206Z,39.45
2023-09-06T11:55:24.253Z,39.67
2023-09-06T11:57:53.648Z,38.74
2023-09-06T12:00:22.396Z,38.92
2023-09-06T12:02:49.331Z,40.06
2023-09-06T12:05:16.073Z,39.12
2023-09-06T12:07:43.093Z,39.02
2023-09-06T12:10:10.533Z,39.38
2023-09-06T12:12:37.392Z,39.59
2023-09-06T12:15:04.244Z,39.80
2023-09-06T12:17:31.294Z,40.62
2023-09-06T12:20:00.454Z,40.99
2023-09-06T12:22:27.441Z,40.43
2023-09-06T12:24:56.093Z,39.90
2023-09-06T12:27:23.022Z,39.61
2023-09-06T12:29:52.154Z,38.87
2023-09-06T12:32:18.814Z,38.18
2023-09-06T12:34:45.701Z,38.20
2023-09-06T12:37:12.655Z,38.21
2023-09-06T12:39:41.614Z,37.90
2023-09-06T12:42:08.675Z,36.97
2023-09-06T12:44:37.984Z,36.74
2023-09-06T12:47:06.469Z,36.63
2023-09-06T12:49:33.137Z,36.28
2023-09-06T12:52:00.053Z,36.49
2023-09-06T12:54:26.957Z,34.54
2023-09-06T12:56:54.265Z,35.56
2023-09-06T12:59:21.352Z,36.24
2023-09-06T13:01:49.982Z,35.91
2023-09-06T13:04:16.888Z,36.08
2023-09-06T13:06:44.926Z,35.79
2023-09-06T13:09:11.916Z,35.79
2023-09-06T13:11:38.913Z,35.35
2023-09-06T13:14:05.825Z,33.82
2023-09-06T13:16:32.590Z,33.80
2023-09-06T13:19:04.428Z,35.03
2023-09-06T13:21:31.533Z,34.78
2023-09-06T13:24:00.887Z,34.62
2023-09-06T13:26:29.782Z,34.80
2023-09-06T13:28:56.636Z,34.77
2023-09-06T13:31:23.348Z,34.58
2023-09-06T13:33:50.802Z,34.11
2023-09-06T13:36:18.496Z,34.38
2023-09-06T13:38:48.155Z,33.75
2023-09-06T13:41:14.923Z,34.56
2023-09-06T13:43:42.020Z,34.61
2023-09-06T13:46:09.498Z,33.69
2023-09-06T13:48:37.343Z,34.20
2023-09-06T13:51:04.572Z,34.16
2023-09-06T13:53:32.337Z,34.79
2023-09-06T13:56:01.461Z,36.35
2023-09-06T13:58:31.730Z,34.84
2023-09-06T14:00:58.948Z,34.73
2023-09-06T14:03:26.258Z,34.39
2023-09-06T14:05:54.121Z,34.50
2023-09-06T14:08:20.897Z,35.22
2023-09-06T14:10:47.605Z,35.46
2023-09-06T14:13:14.518Z,35.77
2023-09-06T14:15:41.351Z,35.72
2023-09-06T14:18:08.386Z,35.38
2023-09-06T14:20:35.441Z,35.40
2023-09-06T14:23:02.560Z,35.26
2023-09-06T14:25:29.316Z,34.96
2023-09-06T14:27:55.870Z,35.96
2023-09-06T14:30:22.481Z,35.68
2023-09-06T14:32:49.263Z,35.99
2023-09-06T14:35:16.057Z,36.13
2023-09-06T14:37:42.773Z,35.63
2023-09-06T14:40:11.546Z,37.07
2023-09-06T14:42:40.044Z,36.22
2023-09-06T14:45:07.572Z,36.06
2023-09-06T14:47:34.537Z,35.48
2023-09-06T14:50:01.497Z,35.49
2023-09-06T14:52:31.150Z,35.06
2023-09-06T14:54:58.207Z,35.30
2023-09-06T14:57:27.303Z,36.33
2023-09-06T14:59:57.350Z,35.82
2023-09-06T15:02:24.107Z,35.69
2023-09-06T15:04:51.147Z,35.51
2023-09-06T15:07:17.821Z,35.30
2023-09-06T15:09:44.694Z,35.03
2023-09-06T15:12:23.788Z,34.75
2023-09-06T15:14:55.170Z,34.94
2023-09-06T15:17:22.965Z,35.92
2023-09-06T15:19:49.607Z,35.80
2023-09-06T15:22:29.089Z,35.46
2023-09-06T15:25:03.211Z,35.86
2023-09-06T15:27:30.095Z,36.35
2023-09-06T15:29:56.806Z,36.93
2023-09-06T15:32:25.039Z,36.80
2023-09-06T15:34:51.635Z,37.48
2023-09-06T15:37:18.648Z,36.51
2023-09-06T15:39:49.853Z,36.53
2023-09-06T15:42:16.923Z,36.20
2023-09-06T15:44:43.858Z,35.51
2023-09-06T15:47:13.078Z,35.38
2023-09-06T15:49:40.067Z,34.82
2023-09-06T15:52:06.936Z,35.38
2023-09-06T15:54:33.639Z,36.29
2023-09-06T15:57:05.477Z,35.75
2023-09-06T15:59:33.943Z,35.91
2023-09-06T16:49:48.370Z,37.92
2023-09-06T16:52:16.056Z,37.83
2023-09-06T16:54:42.825Z,38.37
2023-09-06T17:00:01.994Z,37.79
2023-09-06T17:02:29.380Z,38.12
2023-09-06T17:04:57.048Z,38.11
2023-09-06T17:07:23.716Z,38.12
2023-09-06T17:10:02.760Z,38.22
2023-09-06T17:12:30.495Z,38.10
2023-09-06T17:14:57.309Z,38.16
2023-09-06T17:17:24.026Z,38.44
2023-09-06T17:19:50.543Z,39.31
2023-09-06T17:22:18.579Z,39.02
2023-09-06T17:24:46.428Z,38.81
2023-09-06T17:27:13.025Z,39.39
2023-09-06T17:29:39.760Z,39.55
2023-09-06T17:32:07.237Z,39.30
2023-09-06T17:34:34.136Z,39.91
2023-09-06T17:37:01.066Z,41.19
2023-09-06T17:39:27.633Z,41.54
2023-09-06T17:41:54.378Z,42.31
2023-09-06T17:44:21.072Z,41.89
2023-09-06T17:46:48.009Z,41.44
2023-09-06T17:49:14.627Z,41.81
2023-09-06T17:51:41.692Z,42.23
2023-09-06T17:54:08.318Z,41.72
2023-09-06T17:56:35.999Z,42.14
2023-09-06T17:59:03.733Z,42.01
2023-09-06T18:01:30.444Z,41.87
2023-09-06T18:03:57.582Z,41.77
2023-09-06T18:06:24.445Z,41.65
2023-09-06T18:08:51.358Z,41.92
2023-09-06T18:11:17.909Z,41.95
2023-09-06T18:13:44.602Z,42.29
2023-09-06T18:16:11.193Z,42.40
2023-09-06T18:18:37.828Z,42.44
2023-09-06T18:21:05.446Z,42.31
2023-09-06T18:23:33.137Z,44.75
2023-09-06T18:26:01.973Z,45.23
2023-09-06T18:28:28.886Z,42.57
2023-09-06T18:30:55.696Z,41.11
2023-09-06T18:33:22.459Z,40.63
2023-09-06T18:35:49.135Z,43.54
2023-09-06T18:38:15.999Z,41.06
2023-09-06T18:40:43.582Z,43.63
2023-09-06T18:43:10.504Z,42.80
2023-09-06T18:45:37.054Z,42.76
2023-09-06T18:48:04.629Z,43.96
2023-09-06T18:50:31.280Z,44.05
2023-09-06T18:52:58.124Z,45.96
2023-09-06T18:55:25.716Z,46.41
2023-09-06T18:58:05.550Z,46.10
2023-09-06T19:00:34.142Z,46.17
2023-09-06T19:03:02.132Z,45.75
2023-09-06T19:05:28.801Z,46.91
2023-09-06T19:07:56.202Z,46.25
2023-09-06T19:10:23.049Z,45.92
2023-09-06T19:12:51.606Z,45.66
2023-09-06T19:15:18.444Z,45.57
2023-09-06T19:17:47.484Z,45.60
2023-09-06T19:20:14.184Z,46.17
2023-09-06T19:22:41.607Z,46.49
2023-09-06T19:25:08.158Z,46.55
2023-09-06T19:27:35.072Z,46.50
2023-09-06T19:30:02.360Z,46.49
2023-09-06T19:35:11.640Z,47.45
2023-09-06T19:37:39.314Z,47.14
2023-09-06T19:40:06.284Z,45.76
2023-09-06T19:42:34.542Z,45.49
2023-09-06T19:45:01.429Z,44.85
2023-09-06T19:47:28.128Z,44.37
2023-09-06T19:49:57.011Z,44.95
2023-09-06T19:52:26.569Z,43.93
2023-09-06T19:54:56.414Z,43.67
2023-09-06T19:57:24.496Z,43.44
2023-09-06T19:59:51.921Z,42.89
2023-09-06T20:02:19.041Z,43.88
2023-09-06T20:04:46.028Z,43.54
2023-09-06T20:07:13.107Z,44.38
2023-09-06T20:09:40.007Z,43.71
2023-09-06T20:12:06.651Z,44.53
2023-09-06T20:14:33.595Z,44.36
2023-09-06T20:17:00.622Z,44.41
2023-09-06T20:19:27.533Z,43.85
2023-09-06T20:21:54.168Z,45.01
2023-09-06T20:24:25.362Z,45.00
2023-09-06T20:26:52.117Z,44.82
2023-09-06T20:29:18.752Z,45.07
2023-09-06T20:31:46.023Z,45.55
2023-09-06T20:34:12.742Z,45.42
2023-09-06T20:36:39.589Z,45.37
2023-09-06T20:39:07.613Z,46.21
2023-09-06T20:41:35.832Z,46.39
2023-09-06T20:44:02.518Z,46.42
2023-09-06T20:46:35.097Z,45.99
2023-09-06T20:49:02.968Z,45.85
2023-09-06T20:51:30.608Z,45.48
2023-09-06T20:53:57.233Z,45.13
2023-09-06T20:56:24.756Z,45.60
2023-09-06T20:58:52.388Z,45.39
2023-09-06T21:01:19.107Z,45.15
2023-09-06T21:03:46.076Z,45.80
2023-09-06T21:06:13.074Z,45.49
2023-09-06T21:08:40.044Z,45.98
2023-09-06T21:11:06.946Z,46.00
2023-09-06T21:13:33.593Z,46.03
2023-09-06T21:16:01.187Z,45.03
2023-09-06T21:18:28.902Z,45.12
2023-09-06T21:20:55.893Z,44.71
2023-09-06T21:23:23.637Z,46.52
2023-09-06T21:25:50.250Z,46.50
2023-09-06T21:28:16.904Z,45.64
2023-09-06T21:30:49.655Z,45.49
2023-09-06T21:33:16.715Z,46.09
2023-09-06T21:35:43.985Z,46.17
2023-09-06T21:38:11.379Z,46.24
2023-09-06T21:40:37.944Z,46.49
2023-09-06T21:43:17.001Z,47.44
2023-09-06T21:45:46.261Z,47.81
2023-09-06T21:48:16.122Z,48.98
2023-09-06T21:50:45.381Z,49.23
2023-09-06T21:53:12.734Z,49.63
2023-09-06T21:55:40.298Z,50.03
2023-09-06T21:58:11.187Z,50.01
2023-09-06T22:00:41.680Z,49.05
2023-09-06T22:03:08.880Z,49.40
2023-09-06T22:05:36.184Z,48.83
2023-09-06T22:08:04.507Z,49.43
2023-09-06T22:10:31.086Z,49.43
2023-09-06T22:12:58.689Z,48.39
2023-09-06T22:15:25.644Z,48.30
2023-09-06T22:17:52.622Z,48.58
2023-09-06T22:20:19.384Z,47.83
2023-09-06T22:22:47.024Z,48.34
2023-09-06T22:25:14.006Z,49.23
2023-09-06T22:27:41.487Z,50.08
2023-09-06T22:30:08.352Z,49.44
2023-09-06T22:32:35.277Z,50.58
2023-09-06T22:35:02.749Z,50.02
2023-09-06T22:37:32.529Z,49.82
2023-09-06T22:39:59.576Z,49.29
2023-09-06T22:42:26.997Z,48.06
2023-09-06T22:44:53.848Z,48.18
2023-09-06T22:47:21.229Z,48.25
2023-09-06T22:49:48.083Z,48.45
2023-09-06T22:52:16.461Z,48.17
2023-09-06T22:54:43.929Z,48.91
2023-09-06T22:57:14.172Z,49.06
2023-09-06T22:59:40.846Z,49.72
2023-09-06T23:02:08.383Z,49.75
2023-09-06T23:04:35.158Z,48.56
2023-09-06T23:07:03.834Z,48.12
2023-09-06T23:09:31.596Z,47.47
2023-09-06T23:11:59.251Z,47.43
2023-09-06T23:14:28.108Z,48.26
2023-09-06T23:16:55.102Z,48.60
2023-09-06T23:19:23.556Z,49.33
2023-09-06T23:21:50.437Z,49.86
2023-09-06T23:24:17.414Z,49.64
2023-09-06T23:26:45.482Z,50.56
2023-09-06T23:29:12.402Z,49.55
2023-09-06T23:31:39.389Z,49.81
2023-09-06T23:34:07.113Z,48.59
2023-09-06T23:36:35.386Z,47.71
2023-09-06T23:39:04.483Z,47.97
2023-09-06T23:41:32.099Z,48.54
2023-09-06T23:44:06.266Z,47.96
2023-09-06T23:46:34.385Z,50.11
2023-09-06T23:49:01.432Z,51.57
2023-09-06T23:51:28.417Z,52.63
2023-09-06T23:53:56.121Z,52.96
2023-09-06T23:56:23.350Z,53.46
2023-09-06T23:58:50.213Z,52.22
